createdAt,value
2019-06-27T00:00:19.424Z,22.60
2019-06-27T00:10:24.746Z,22.50
2019-06-27T00:20:30.084Z,22.60
2019-06-27T00:30:35.527Z,22.50
2019-06-27T00:40:40.841Z,22.50
2019-06-27T00:50:46.715Z,22.50
2019-06-27T01:00:52.043Z,22.50
2019-06-27T01:10:57.394Z,22.50
2019-06-27T01:21:02.780Z,22.50
2019-06-27T01:31:08.110Z,22.50
2019-06-27T01:41:13.477Z,22.50
2019-06-27T01:51:18.943Z,22.50
2019-06-27T02:01:24.305Z,22.50
2019-06-27T02:11:29.624Z,22.50
2019-06-27T02:21:34.964Z,22.50
2019-06-27T02:31:40.287Z,22.50
2019-06-27T02:41:45.602Z,22.50
2019-06-27T02:51:51.031Z,22.50
2019-06-27T03:01:56.361Z,22.50
2019-06-27T03:12:01.702Z,22.50
2019-06-27T03:22:07.015Z,22.50
2019-06-27T03:32:12.413Z,22.40
2019-06-27T03:42:17.992Z,22.40
2019-06-27T03:52:23.412Z,22.40
2019-06-27T04:02:29.786Z,22.40
2019-06-27T04:12:35.118Z,22.40
2019-06-27T04:22:40.453Z,22.40
2019-06-27T04:32:45.801Z,22.40
2019-06-27T04:42:51.112Z,22.40
2019-06-27T04:52:56.501Z,22.40
2019-06-27T05:03:01.837Z,22.40
2019-06-27T05:13:07.143Z,22.40
2019-06-27T05:23:12.449Z,22.40
2019-06-27T05:33:17.756Z,22.40
2019-06-27T05:43:23.212Z,22.40
2019-06-27T05:53:28.539Z,22.40
2019-06-27T06:03:33.940Z,22.30
2019-06-27T06:13:39.315Z,22.30
2019-06-27T06:23:44.614Z,22.30
2019-06-27T06:33:49.923Z,22.30
2019-06-27T06:43:55.238Z,22.30
2019-06-27T06:54:00.608Z,22.30
2019-06-27T07:04:06.187Z,22.30
2019-06-27T07:14:11.591Z,22.30
2019-06-27T07:24:16.900Z,22.30
2019-06-27T07:34:22.250Z,22.30
2019-06-27T07:44:27.637Z,22.30
2019-06-27T07:54:32.974Z,22.30
2019-06-27T08:04:38.297Z,22.30
2019-06-27T08:14:43.597Z,22.30
2019-06-27T08:24:48.923Z,22.30
2019-06-27T08:34:54.313Z,22.30
2019-06-27T08:44:59.700Z,22.30
2019-06-27T08:55:05.274Z,22.40
2019-06-27T09:05:10.600Z,22.40
2019-06-27T09:15:16.089Z,22.40
2019-06-27T09:25:21.414Z,22.40
2019-06-27T09:35:26.731Z,22.40
2019-06-27T09:45:32.054Z,22.40
2019-06-27T09:55:37.415Z,22.40
2019-06-27T10:05:42.895Z,22.40
2019-06-27T10:15:48.204Z,22.40
2019-06-27T10:25:54.582Z,22.50
2019-06-27T10:35:59.928Z,22.50
2019-06-27T10:46:05.311Z,22.50
2019-06-27T10:56:10.624Z,22.50
2019-06-27T11:06:15.937Z,22.50
2019-06-27T11:16:21.242Z,22.50
2019-06-27T11:26:26.548Z,22.50
2019-06-27T11:36:31.861Z,22.50
2019-06-27T11:46:37.235Z,22.50
2019-06-27T11:56:42.557Z,22.50
2019-06-27T12:06:47.873Z,22.60
2019-06-27T12:16:53.298Z,22.60
2019-06-27T12:26:58.598Z,22.60
2019-06-27T12:37:04.018Z,22.60
2019-06-27T12:47:09.454Z,22.60
2019-06-27T12:57:14.794Z,22.60
2019-06-27T13:07:20.117Z,22.70
2019-06-27T13:17:25.523Z,22.70
2019-06-27T13:27:30.943Z,22.70
2019-06-27T13:37:36.287Z,22.70
2019-06-27T13:47:41.625Z,22.80
2019-06-27T13:57:46.969Z,22.80
2019-06-27T14:07:52.308Z,22.80
2019-06-27T14:17:57.628Z,22.80
2019-06-27T14:28:02.940Z,22.80
2019-06-27T14:38:09.403Z,22.80
2019-06-27T14:48:14.702Z,22.90
2019-06-27T14:58:20.377Z,22.80
2019-06-27T15:08:25.692Z,22.90
2019-06-27T15:18:31.008Z,22.90
2019-06-27T15:28:36.348Z,22.90
2019-06-27T15:38:41.675Z,23.00
2019-06-27T15:48:46.995Z,23.00
2019-06-27T15:58:52.324Z,23.00
2019-06-27T16:08:59.198Z,23.00
2019-06-27T16:19:04.585Z,22.90
2019-06-27T16:29:09.922Z,23.00
2019-06-27T16:39:15.266Z,23.00
2019-06-27T16:49:20.594Z,23.00
2019-06-27T16:59:25.915Z,23.10
2019-06-27T17:09:31.226Z,23.10
2019-06-27T17:19:36.652Z,23.10
2019-06-27T17:29:41.971Z,23.10
2019-06-27T17:39:47.432Z,23.10
2019-06-27T17:49:52.805Z,23.10
2019-06-27T17:59:58.170Z,23.10
2019-06-27T18:10:03.760Z,23.10
2019-06-27T18:20:09.380Z,23.10
2019-06-27T18:30:14.698Z,23.10
2019-06-27T18:40:20.001Z,23.20
2019-06-27T18:50:25.356Z,23.20
2019-06-27T19:00:30.665Z,23.20
2019-06-27T19:10:36.002Z,23.20
2019-06-27T19:20:46.751Z,23.20
2019-06-27T19:30:52.240Z,23.20
2019-06-27T19:40:57.700Z,23.20
2019-06-27T19:51:03.166Z,23.20
2019-06-27T20:01:08.505Z,23.20
2019-06-27T20:11:13.849Z,23.20
2019-06-27T20:21:19.181Z,23.30
2019-06-27T20:31:24.488Z,23.20
2019-06-27T20:41:29.800Z,23.20
2019-06-27T20:51:35.241Z,23.30
2019-06-27T21:01:40.656Z,23.20
2019-06-27T21:11:45.973Z,23.30
2019-06-27T21:21:51.445Z,23.20
2019-06-27T21:31:56.820Z,23.20
2019-06-27T21:42:02.271Z,23.20
2019-06-27T21:52:09.029Z,23.20
2019-06-27T22:02:15.911Z,23.20
2019-06-27T22:12:21.323Z,23.20
2019-06-27T22:22:26.677Z,23.30
2019-06-27T22:32:32.810Z,23.30
2019-06-27T22:42:56.444Z,23.20
2019-06-27T22:53:08.283Z,23.20
2019-06-27T23:03:13.602Z,23.20
2019-06-27T23:13:18.901Z,23.20
2019-06-27T23:23:24.219Z,23.20
2019-06-27T23:33:29.549Z,23.20
2019-06-27T23:43:34.891Z,23.20
2019-06-27T23:53:40.450Z,23.20
